Time;durP1;ratioP1;P1;durP2;ratioP2;P2;SDS_P1;SDS_P2;PMS_P1;PMS_P2;Temp;Humidity;BMP_temperature;BMP_pressure;BME280_temperature;BME280_humidity;BME280_pressure;Samples;Min_cycle;Max_cycle;Signal;HPM_P1;HPM_P2
2021/11/25 00:01:58;;;;;;;148.23;59.07;;;;;;;-1.96;86.41;99301.69;4258452;82;21051;-81
2021/11/25 00:08:03;;;;;;;149.00;57.70;;;;;;;-2.15;86.39;99283.39;4184672;82;21103;-82
2021/11/25 00:14:05;;;;;;;140.40;56.77;;;;;;;-2.15;86.41;99272.66;4153367;84;20992;-82
2021/11/25 00:20:11;;;;;;;138.43;58.33;;;;;;;-2.15;86.73;99265.96;4141488;84;21059;-82
2021/11/25 00:26:17;;;;;;;144.17;60.37;;;;;;;-2.22;86.50;99260.94;4145545;83;21070;-81
2021/11/25 00:32:18;;;;;;;152.20;54.50;;;;;;;-2.19;86.80;99260.89;4165637;83;21523;-81
2021/11/25 00:38:24;;;;;;;153.33;55.47;;;;;;;-2.25;86.54;99248.63;4146547;83;21074;-81
2021/11/25 00:44:29;;;;;;;162.62;56.28;;;;;;;-2.41;86.35;99250.68;4144642;84;21031;-81
2021/11/25 00:50:30;;;;;;;148.60;59.00;;;;;;;-2.58;86.22;99242.28;4163007;83;21078;-81
2021/11/25 00:56:34;;;;;;;150.93;56.97;;;;;;;-2.68;86.57;99225.52;4152955;83;21649;-80
2021/11/25 01:02:37;;;;;;;158.77;60.47;;;;;;;-2.64;86.84;99225.19;4155661;83;21090;-80
2021/11/25 01:08:39;;;;;;;156.00;59.77;;;;;;;-2.63;86.99;99211.50;4216518;82;21657;-81
2021/11/25 01:14:41;;;;;;;157.83;57.87;;;;;;;-2.69;86.71;99203.83;4247114;82;21089;-81
2021/11/25 01:20:46;;;;;;;145.50;57.90;;;;;;;-2.75;86.78;99195.55;4237350;82;20983;-81
2021/11/25 01:26:48;;;;;;;155.83;60.80;;;;;;;-2.73;87.19;99194.21;4259144;82;21009;-81
2021/11/25 01:32:50;;;;;;;144.13;53.23;;;;;;;-2.68;87.38;99184.78;4253447;81;21017;-80
2021/11/25 01:38:51;;;;;;;154.83;57.80;;;;;;;-2.60;87.04;99170.73;4254526;82;21066;-80
2021/11/25 01:44:53;;;;;;;151.20;57.63;;;;;;;-2.77;86.98;99165.03;4239365;82;21510;-80
2021/11/25 01:50:56;;;;;;;148.90;59.33;;;;;;;-2.83;86.61;99154.11;4240632;82;21019;-80
2021/11/25 01:56:58;;;;;;;157.53;61.43;;;;;;;-3.02;87.01;99145.75;4238979;82;21084;-81
2021/11/25 02:03:20;;;;;;;156.40;62.53;;;;;;;-3.06;86.80;99129.45;4235591;82;21831;-80
2021/11/25 02:09:22;;;;;;;159.30;61.77;;;;;;;-3.21;86.89;99122.35;4213200;82;21051;-80
2021/11/25 02:15:23;;;;;;;146.47;58.73;;;;;;;-3.23;86.81;99125.84;4199967;82;21129;-80
2021/11/25 02:21:28;;;;;;;146.10;61.70;;;;;;;-3.35;87.14;99112.58;4195577;82;21094;-80
2021/11/25 02:27:30;;;;;;;146.50;59.13;;;;;;;-3.43;87.08;99101.94;4184262;82;21099;-81
2021/11/25 02:33:31;;;;;;;143.63;56.70;;;;;;;-3.55;87.33;99094.02;4183247;82;21070;-81
2021/11/25 02:39:33;;;;;;;124.47;54.03;;;;;;;-3.48;87.06;99077.12;4201175;82;20978;-81
2021/11/25 02:46:06;;;;;;;127.07;54.70;;;;;;;-3.57;87.28;99062.76;4208630;82;22004;-81
2021/11/25 02:52:09;;;;;;;124.07;50.67;;;;;;;-3.52;87.64;99056.80;4203888;82;21070;-81
2021/11/25 02:58:12;;;;;;;121.40;48.70;;;;;;;-3.53;87.00;99051.73;4199521;82;21387;-81
2021/11/25 03:04:13;;;;;;;141.13;52.63;;;;;;;-3.56;87.54;99041.06;4193835;82;21567;-80
2021/11/25 03:10:14;;;;;;;121.40;51.07;;;;;;;-3.61;87.47;99029.07;4223272;82;21017;-80
2021/11/25 03:16:18;;;;;;;119.97;51.17;;;;;;;-3.65;87.49;99023.23;4254998;81;21568;-80
2021/11/25 03:22:24;;;;;;;113.07;49.97;;;;;;;-3.65;87.60;99013.86;4244012;82;21084;-81
2021/11/25 03:28:26;;;;;;;105.10;45.17;;;;;;;-3.71;87.44;99004.30;4240387;82;21037;-81
2021/11/25 03:34:27;;;;;;;101.20;46.70;;;;;;;-3.75;87.59;99004.58;4256095;82;21026;-82
2021/11/25 03:40:29;;;;;;;91.03;41.70;;;;;;;-3.79;87.91;98993.64;4248646;82;21545;-80
2021/11/25 03:53:38;;;;;;;89.57;41.03;;;;;;;-3.80;88.49;98976.01;3770206;91;21137;-81
2021/11/25 03:59:41;;;;;;;95.53;41.93;;;;;;;-3.76;88.65;98973.58;3712370;94;21125;-81
2021/11/25 04:05:43;;;;;;;93.63;42.80;;;;;;;-3.71;88.14;98969.52;3838208;91;21088;-81
2021/11/25 04:11:44;;;;;;;92.97;41.50;;;;;;;-3.69;89.02;98953.96;3826227;91;21128;-81
2021/11/25 04:17:47;;;;;;;94.50;43.97;;;;;;;-3.82;87.96;98935.36;3858242;88;41977;-80
2021/11/25 04:23:52;;;;;;;106.67;47.17;;;;;;;-4.01;88.05;98935.03;3841271;91;21405;-80
2021/11/25 04:30:11;;;;;;;106.17;47.73;;;;;;;-4.03;88.47;98925.16;3887756;89;21041;-81
2021/11/25 04:43:20;;;;;;;92.20;40.40;;;;;;;-4.11;88.63;98907.05;3908816;90;21105;-81
2021/11/25 04:49:22;;;;;;;96.73;42.43;;;;;;;-4.25;88.22;98898.09;3899480;89;21060;-80
2021/11/25 04:55:23;;;;;;;88.63;41.17;;;;;;;-4.33;88.18;98897.36;4005590;88;21108;-81
2021/11/25 05:01:25;;;;;;;85.10;38.97;;;;;;;-4.29;88.33;98883.15;4007585;88;21066;-80
2021/11/25 05:14:34;;;;;;;103.87;48.40;;;;;;;-4.27;88.72;98860.15;4001781;88;21191;-80
2021/11/25 05:20:36;;;;;;;95.77;41.97;;;;;;;-4.26;88.80;98853.74;3993170;88;21515;-80
2021/11/25 05:26:38;;;;;;;93.93;42.53;;;;;;;-4.28;88.87;98847.34;3991607;88;21077;-80
2021/11/25 05:32:40;;;;;;;98.93;45.67;;;;;;;-4.44;88.01;98841.07;3975161;88;21916;-80
2021/11/25 05:38:42;;;;;;;100.77;45.80;;;;;;;-4.50;88.25;98837.66;3989173;88;21078;-79
2021/11/25 05:44:46;;;;;;;109.67;46.67;;;;;;;-4.65;88.25;98825.76;3999849;88;21051;-79
2021/11/25 05:50:49;;;;;;;107.67;43.30;;;;;;;-4.75;88.43;98817.05;3990187;88;21635;-81
2021/11/25 05:56:51;;;;;;;106.57;46.60;;;;;;;-4.75;88.85;98816.52;3999834;88;21016;-79
2021/11/25 06:02:54;;;;;;;100.03;44.23;;;;;;;-4.78;88.46;98809.07;3992450;88;21571;-81
2021/11/25 06:08:58;;;;;;;90.37;39.00;;;;;;;-4.75;89.01;98811.17;3995278;88;21091;-79
2021/11/25 06:15:00;;;;;;;113.83;46.20;;;;;;;-4.53;89.83;98805.36;3988349;88;21009;-79
2021/11/25 06:21:02;;;;;;;111.27;44.63;;;;;;;-4.45;89.21;98802.89;3996668;88;21078;-80
2021/11/25 06:27:05;;;;;;;92.77;40.43;;;;;;;-4.56;88.83;98791.23;3982802;88;21063;-79
2021/11/25 06:33:06;;;;;;;105.73;42.63;;;;;;;-4.47;89.48;98794.88;3991057;88;21565;-79
2021/11/25 06:39:09;;;;;;;89.23;37.83;;;;;;;-4.52;88.57;98800.27;3994401;88;21148;-79
2021/11/25 06:45:13;;;;;;;113.27;45.33;;;;;;;-4.59;89.04;98801.16;3990191;88;21062;-79
2021/11/25 06:51:14;;;;;;;115.80;49.27;;;;;;;-4.43;89.23;98798.04;3964765;88;21526;-79
2021/11/25 06:57:17;;;;;;;103.97;45.77;;;;;;;-4.42;89.11;98802.33;3919819;88;21701;-79
2021/11/25 07:03:19;;;;;;;146.90;62.17;;;;;;;-4.41;89.51;98795.08;3977139;88;21164;-79
2021/11/25 07:09:23;;;;;;;105.17;44.87;;;;;;;-4.25;89.62;98791.98;3974713;88;21167;-79
2021/11/25 07:15:27;;;;;;;105.60;45.80;;;;;;;-4.00;90.44;98801.59;3975067;87;21083;-79
2021/11/25 07:21:29;;;;;;;127.90;54.20;;;;;;;-3.82;90.47;98792.83;3982900;87;21077;-80
2021/11/25 07:27:37;;;;;;;135.17;59.17;;;;;;;-3.71;90.32;98794.30;3966564;87;21072;-80
2021/11/25 07:33:41;;;;;;;143.33;62.93;;;;;;;-3.08;91.66;98792.05;3977799;87;21590;-79
2021/11/25 07:39:42;;;;;;;139.60;63.53;;;;;;;-2.61;91.14;98779.22;3976024;87;21066;-80
2021/11/25 07:45:44;;;;;;;134.67;65.20;;;;;;;-2.00;91.44;98776.20;3976917;88;21022;-81
2021/11/25 07:51:47;;;;;;;116.30;58.07;;;;;;;-1.48;90.88;98769.48;4022909;87;21103;-80
2021/11/25 07:57:49;;;;;;;122.80;59.80;;;;;;;-0.92;90.84;98776.51;4068436;87;21043;-81
2021/11/25 08:03:55;;;;;;;119.20;56.48;;;;;;;-0.70;91.20;98762.53;4067082;86;21115;-81
2021/11/25 08:09:59;;;;;;;120.27;57.17;;;;;;;-0.15;90.84;98746.83;4066203;87;21120;-81
2021/11/25 08:16:09;;;;;;;108.03;52.95;;;;;;;0.46;90.99;98741.83;4072620;87;21108;-81
2021/11/25 08:22:13;;;;;;;105.40;50.88;;;;;;;0.95;91.04;98736.00;4072916;87;21819;-81
2021/11/25 08:28:22;;;;;;;101.62;58.48;;;;;;;1.35;90.04;98730.08;3977480;88;21147;-82
2021/11/25 08:34:30;;;;;;;105.22;54.75;;;;;;;1.82;90.51;98732.80;3969853;88;21018;-83
2021/11/25 08:40:35;;;;;;;111.28;60.03;;;;;;;2.45;90.24;98732.60;3975418;88;21099;-84
2021/11/25 08:46:36;;;;;;;102.07;58.60;;;;;;;2.81;89.75;98732.82;3977334;87;21099;-84
2021/11/25 08:52:54;;;;;;;109.00;59.30;;;;;;;3.37;89.66;98722.67;3935949;88;21629;-83
2021/11/25 08:59:00;;;;;;;;;;;;;;;3.95;87.95;98717.47;3925224;89;21101;-84
2021/11/25 09:05:12;;;;;;;115.37;60.00;;;;;;;4.34;87.65;98717.58;3909024;89;21048;-85
2021/11/25 09:11:28;;;;;;;112.05;61.02;;;;;;;4.72;87.51;98718.53;3880212;89;21097;-85
2021/11/25 09:17:29;;;;;;;110.57;61.75;;;;;;;5.12;87.50;98712.51;3917117;89;21095;-85
2021/11/25 09:23:37;;;;;;;112.90;63.87;;;;;;;5.78;87.12;98695.09;3925994;90;21178;-84
2021/11/25 09:29:44;;;;;;;124.95;62.05;;;;;;;5.78;85.50;98676.84;3923345;89;31876;-84
2021/11/25 09:35:47;;;;;;;97.47;55.88;;;;;;;5.81;86.05;98672.66;3931519;89;21137;-84
2021/11/25 09:41:57;;;;;;;88.07;47.53;;;;;;;6.20;84.47;98668.96;3925924;89;21106;-85
2021/11/25 09:48:07;;;;;;;76.92;39.40;;;;;;;6.49;83.97;98658.92;3917879;89;22327;-85
2021/11/25 09:54:25;;;;;;;77.67;43.00;;;;;;;6.98;84.24;98653.72;3876065;89;21098;-85
2021/11/25 10:00:28;;;;;;;74.58;41.58;;;;;;;7.53;83.94;98630.05;3858712;90;21089;-85
2021/11/25 10:06:53;;;;;;;66.67;38.90;;;;;;;8.03;82.77;98622.89;3859701;89;21582;-85
2021/11/25 10:13:14;;;;;;;62.48;36.58;;;;;;;8.10;81.28;98622.98;3857579;90;22032;-85
2021/11/25 10:19:24;;;;;;;54.85;34.00;;;;;;;8.37;81.85;98603.33;3858478;89;21093;-85
2021/11/25 10:52:52;;;;;;;56.40;31.73;;;;;;;7.56;79.42;98523.86;3836204;90;21194;-85
2021/11/25 10:59:04;;;;;;;55.92;33.08;;;;;;;7.50;77.81;98506.86;3831894;90;21196;-85
2021/11/25 11:05:21;;;;;;;54.93;31.77;;;;;;;7.03;77.87;98493.63;3927969;89;21138;-85
2021/11/25 11:11:32;;;;;;;46.13;26.90;;;;;;;6.91;77.96;98483.50;3917088;89;21372;-86
2021/11/25 11:24:49;;;;;;;42.27;23.20;;;;;;;6.77;77.36;98462.86;3938818;88;21084;-87
2021/11/25 11:31:20;;;;;;;26.17;15.68;;;;;;;6.85;76.82;98449.59;3850639;89;21095;-85
2021/11/25 11:37:21;;;;;;;20.72;12.80;;;;;;;6.85;76.12;98435.42;3915789;89;21070;-86
2021/11/25 11:43:23;;;;;;;23.15;13.10;;;;;;;6.71;75.29;98416.14;3925332;89;21741;-85
2021/11/25 11:49:25;;;;;;;22.60;12.58;;;;;;;6.64;74.74;98406.48;3920135;89;21055;-86
2021/11/25 11:55:40;;;;;;;19.35;11.18;;;;;;;6.52;73.80;98397.16;3908472;89;21880;-85
2021/11/25 12:02:06;;;;;;;25.57;13.35;;;;;;;6.38;74.00;98384.68;3833400;91;21580;-83
2021/11/25 12:08:34;;;;;;;27.50;15.60;;;;;;;6.15;73.28;98367.58;3845262;90;21604;-84
2021/11/25 12:14:37;;;;;;;30.00;15.98;;;;;;;6.14;73.34;98355.11;3839032;88;21127;-84
2021/11/25 12:20:41;;;;;;;38.02;19.05;;;;;;;6.15;73.32;98344.47;3834871;90;21549;-84
2021/11/25 12:27:21;;;;;;;34.70;19.25;;;;;;;6.21;72.92;98337.59;3891892;91;21593;-84
2021/11/25 12:33:48;;;;;;;45.92;21.12;;;;;;;6.22;72.62;98325.00;3837462;90;21510;-83
2021/11/25 12:39:50;;;;;;;41.48;20.80;;;;;;;6.20;72.60;98312.33;3800969;91;21435;-83
2021/11/25 12:45:58;;;;;;;37.75;20.65;;;;;;;6.23;72.28;98307.53;3853481;90;21026;-83
2021/11/25 12:51:59;;;;;;;39.25;20.55;;;;;;;6.19;72.03;98308.05;3853894;89;21130;-84
2021/11/25 12:58:01;;;;;;;46.02;21.90;;;;;;;6.12;72.02;98286.18;3866699;90;21519;-83
2021/11/25 13:04:27;;;;;;;41.88;21.87;;;;;;;6.04;71.94;98275.00;3871775;90;21074;-82
2021/11/25 13:10:32;;;;;;;41.85;22.52;;;;;;;5.99;71.71;98271.78;3872987;90;21094;-83
2021/11/25 13:16:56;;;;;;;42.15;21.23;;;;;;;5.90;71.64;98269.89;3861774;90;21085;-83
2021/11/25 13:23:03;;;;;;;46.42;23.12;;;;;;;5.90;71.73;98254.35;3873726;89;22102;-83
2021/11/25 13:29:07;;;;;;;45.23;23.67;;;;;;;5.89;71.40;98255.52;3871740;89;21398;-82
2021/11/25 13:35:14;;;;;;;44.85;22.25;;;;;;;5.86;71.25;98245.94;3875992;89;21883;-82
2021/11/25 13:41:22;;;;;;;44.25;21.10;;;;;;;5.66;71.22;98244.38;3873656;90;21077;-82
2021/11/25 13:47:30;;;;;;;40.60;21.82;;;;;;;5.58;71.32;98242.68;3865495;90;21095;-82
2021/11/25 13:53:32;;;;;;;44.50;22.73;;;;;;;5.54;71.27;98239.92;3866137;89;21085;-81
2021/11/25 13:59:36;;;;;;;58.90;29.80;;;;;;;5.55;71.27;98231.98;3866751;90;21542;-82
2021/11/25 14:05:58;;;;;;;47.17;23.87;;;;;;;5.44;71.08;98222.05;3864300;88;21076;-82
2021/11/25 14:12:03;;;;;;;58.33;24.37;;;;;;;5.29;71.24;98212.09;3869492;90;21078;-83
2021/11/25 14:18:10;;;;;;;46.73;23.57;;;;;;;5.08;71.45;98207.03;3870157;90;22159;-82
2021/11/25 14:24:16;;;;;;;53.08;23.60;;;;;;;4.97;71.26;98214.73;3859576;90;21027;-82
2021/11/25 14:30:23;;;;;;;50.23;28.23;;;;;;;4.72;71.14;98202.02;3863781;90;21057;-84
2021/11/25 14:36:32;;;;;;;74.62;30.40;;;;;;;4.34;71.97;98207.36;3869594;90;22040;-81
2021/11/25 14:42:33;;;;;;;108.50;46.95;;;;;;;4.14;72.25;98197.61;3864023;90;21883;-82
2021/11/25 14:48:39;;;;;;;92.57;42.85;;;;;;;3.76;72.46;98190.12;3869459;90;21038;-82
2021/11/25 14:54:40;;;;;;;180.35;73.30;;;;;;;3.54;72.54;98199.42;3861083;89;21129;-82
2021/11/25 15:00:44;;;;;;;96.42;41.10;;;;;;;3.25;72.92;98188.41;3842876;91;22234;-81
2021/11/25 15:07:00;;;;;;;113.17;44.03;;;;;;;2.88;73.28;98189.72;3846852;91;21049;-81
2021/11/25 15:13:04;;;;;;;85.30;38.07;;;;;;;2.67;73.49;98178.29;3836377;91;21037;-81
2021/11/25 15:19:06;;;;;;;132.00;57.25;;;;;;;2.36;74.11;98181.64;3905935;90;21182;-81
2021/11/25 15:25:11;;;;;;;104.45;43.05;;;;;;;2.07;74.29;98179.19;3902709;89;21496;-81
2021/11/25 15:31:12;;;;;;;91.42;41.33;;;;;;;1.92;75.07;98182.58;3909870;90;21716;-81
2021/11/25 15:37:13;;;;;;;113.40;54.80;;;;;;;1.82;74.77;98171.45;3908598;90;21079;-81
2021/11/25 15:43:17;;;;;;;107.37;47.53;;;;;;;1.63;75.64;98164.69;3900722;89;21078;-81
2021/11/25 15:49:18;;;;;;;124.78;54.35;;;;;;;1.54;75.92;98153.78;3914625;88;21114;-81
2021/11/25 15:55:20;;;;;;;109.52;47.85;;;;;;;1.30;76.12;98153.77;3899328;89;21081;-81
2021/11/25 16:01:28;;;;;;;121.13;54.95;;;;;;;1.19;76.27;98160.12;3925883;88;28488;-81
2021/11/25 16:07:29;;;;;;;118.77;51.53;;;;;;;1.07;76.63;98154.71;3928868;89;21064;-82
2021/11/25 16:13:39;;;;;;;94.97;41.83;;;;;;;0.90;76.40;98160.27;3936662;89;21124;-82
2021/11/25 16:19:36;;;;;;;103.97;43.10;;;;;;;0.60;76.96;98167.43;3937105;89;21568;-82
2021/11/25 16:25:39;;;;;;;129.03;64.97;;;;;;;0.48;78.53;98172.22;3945045;89;21057;-82
2021/11/25 16:31:41;;;;;;;107.12;48.23;;;;;;;0.32;78.01;98161.00;3930172;89;21076;-82
2021/11/25 16:37:43;;;;;;;109.90;48.90;;;;;;;0.29;77.89;98161.11;3934702;89;21812;-81
2021/11/25 16:43:45;;;;;;;124.90;56.13;;;;;;;0.21;78.68;98170.58;3932916;89;21083;-81
2021/11/25 16:49:46;;;;;;;116.95;52.67;;;;;;;0.23;78.73;98168.36;3925290;89;21525;-82
2021/11/25 17:02:21;;;;;;;130.18;58.52;;;;;;;0.14;79.57;98164.94;3890644;90;21145;-82
2021/11/25 17:08:24;;;;;;;176.63;73.57;;;;;;;-0.01;78.86;98171.67;3895533;90;21012;-82
2021/11/25 17:14:26;;;;;;;189.72;87.88;;;;;;;-0.29;79.54;98178.08;3885728;89;21095;-82
2021/11/25 17:20:29;;;;;;;187.18;93.27;;;;;;;-0.38;80.01;98177.34;3887498;90;21749;-82
2021/11/25 17:26:44;;;;;;;175.68;87.20;;;;;;;-0.53;80.11;98148.83;3888230;90;21391;-82
2021/11/25 17:32:46;;;;;;;188.80;89.42;;;;;;;-0.51;80.30;98152.00;3863438;90;21034;-82
2021/11/25 17:38:47;;;;;;;162.57;73.45;;;;;;;-0.41;80.59;98165.09;3890931;90;21095;-83
2021/11/25 17:44:58;;;;;;;152.68;67.50;;;;;;;-0.46;80.82;98157.20;3900730;90;21708;-82
2021/11/25 17:51:03;;;;;;;163.05;72.22;;;;;;;-0.57;81.45;98162.16;3888891;90;21141;-83
2021/11/25 17:57:38;;;;;;;156.07;71.85;;;;;;;-0.61;81.01;98167.16;3939387;88;21500;-82
2021/11/25 18:04:00;;;;;;;169.28;81.45;;;;;;;-0.61;81.01;98167.16;3963487;88;21142;-82
2021/11/25 18:10:04;;;;;;;192.07;91.78;;;;;;;-0.81;81.25;98173.20;3954501;90;21483;-81
2021/11/25 18:23:31;;;;;;;210.75;96.05;;;;;;;-1.05;82.01;98167.02;3948550;90;21113;-81
2021/11/25 18:29:32;;;;;;;194.57;87.90;;;;;;;-1.22;82.09;98157.65;3912363;89;21110;-80
2021/11/25 18:35:34;;;;;;;194.52;86.55;;;;;;;-1.25;82.71;98168.26;3896656;90;21117;-81
2021/11/25 18:41:36;;;;;;;212.85;99.60;;;;;;;-1.18;82.88;98177.41;3908521;90;21063;-80
2021/11/25 18:47:48;;;;;;;188.17;93.10;;;;;;;-1.24;83.03;98171.97;3900024;90;21062;-80
2021/11/25 18:54:04;;;;;;;202.30;98.20;;;;;;;-1.22;83.15;98175.09;3929521;90;21034;-81
2021/11/25 19:00:07;;;;;;;190.05;91.92;;;;;;;-1.25;83.07;98169.02;3894369;89;21143;-80
2021/11/25 19:06:09;;;;;;;168.17;81.50;;;;;;;-1.30;83.11;98157.67;3896636;89;21626;-81
2021/11/25 19:12:11;;;;;;;211.33;99.90;;;;;;;-1.42;83.19;98160.19;3894632;90;21072;-82
2021/11/25 19:18:15;;;;;;;197.10;97.20;;;;;;;-1.47;82.98;98160.38;3854862;90;21070;-81
2021/11/25 19:24:17;;;;;;;197.10;96.80;;;;;;;-1.52;83.63;98161.88;3898303;88;21045;-81
2021/11/25 19:30:19;;;;;;;187.33;91.17;;;;;;;-1.61;83.43;98159.17;3899528;89;21091;-81
2021/11/25 19:36:23;;;;;;;187.50;89.33;;;;;;;-1.67;83.72;98157.22;3897710;90;21099;-82
2021/11/25 19:42:30;;;;;;;167.57;80.53;;;;;;;-1.65;83.93;98170.31;3895637;89;21059;-81
2021/11/25 19:48:32;;;;;;;197.10;93.13;;;;;;;-1.68;84.01;98172.29;3874903;90;21062;-82
2021/11/25 19:54:33;;;;;;;197.40;90.47;;;;;;;-1.80;83.89;98183.62;3907234;90;21074;-82
2021/11/25 20:00:43;;;;;;;190.80;87.80;;;;;;;-1.88;83.77;98180.38;3800065;87;9999512;-82
2021/11/25 20:06:49;;;;;;;195.03;87.77;;;;;;;-2.00;83.98;98184.23;3954321;90;21005;-82
2021/11/25 20:19:50;;;;;;;201.58;87.97;;;;;;;-1.95;84.69;98179.27;3890859;91;21148;-82
2021/11/25 20:26:02;;;;;;;192.60;84.43;;;;;;;-1.98;84.57;98182.05;3907660;89;21140;-82
2021/11/25 20:32:04;;;;;;;196.27;85.17;;;;;;;-2.11;84.40;98194.22;3903125;90;21119;-82
2021/11/25 20:38:05;;;;;;;194.70;81.80;;;;;;;-2.17;84.71;98185.55;3893054;90;21131;-82
2021/11/25 20:44:32;;;;;;;191.83;84.83;;;;;;;-2.18;84.88;98188.53;3918920;90;21128;-82
2021/11/25 20:50:34;;;;;;;197.20;93.07;;;;;;;-2.23;84.99;98190.81;3899276;90;21109;-82
2021/11/25 20:56:37;;;;;;;169.90;76.40;;;;;;;-2.32;84.66;98179.82;3901265;90;21198;-82
2021/11/25 21:02:40;;;;;;;160.30;70.90;;;;;;;-2.32;84.37;98172.55;3953415;89;21054;-82
2021/11/25 21:15:35;;;;;;;175.17;77.20;;;;;;;-2.31;84.88;98176.83;3947750;89;21809;-82
2021/11/25 21:21:38;;;;;;;143.13;65.23;;;;;;;-2.49;85.16;98165.02;3968292;87;21588;-83
2021/11/25 21:27:44;;;;;;;155.60;69.73;;;;;;;-2.47;85.65;98168.97;3961153;89;21192;-82
2021/11/25 21:34:13;;;;;;;183.90;86.63;;;;;;;-2.37;85.87;98159.31;3952795;89;21140;-82
2021/11/25 21:40:19;;;;;;;201.90;88.83;;;;;;;-2.43;85.83;98167.80;3956148;88;21100;-81
2021/11/25 21:46:20;;;;;;;;;;;;;;;-2.47;85.83;98169.50;3954749;87;21394;-81
2021/11/25 21:52:23;;;;;;;176.37;78.50;;;;;;;-2.50;86.02;98159.41;3973234;89;20185;-81
2021/11/25 21:58:24;;;;;;;166.87;75.23;;;;;;;-2.51;86.38;98176.59;3958924;89;21028;-81
2021/11/25 22:05:02;;;;;;;174.17;74.67;;;;;;;-2.48;86.24;98155.34;3846117;89;21085;-81
2021/11/25 22:11:07;;;;;;;185.37;85.10;;;;;;;-2.53;86.16;98137.25;3860753;91;21169;-81
2021/11/25 22:17:13;;;;;;;164.73;72.80;;;;;;;-2.58;86.04;98129.34;3839176;91;21145;-81
2021/11/25 22:29:36;;;;;;;185.70;83.83;;;;;;;-2.72;86.21;98129.47;3848813;91;21077;-81
2021/11/25 22:35:37;;;;;;;161.70;77.67;;;;;;;-2.73;86.48;98144.52;3847234;91;21576;-81
2021/11/25 22:41:40;;;;;;;175.33;79.60;;;;;;;-2.73;86.06;98135.94;3864113;91;21086;-81
2021/11/25 22:47:41;;;;;;;170.00;76.90;;;;;;;-2.68;87.24;98148.40;3864873;90;21025;-81
2021/11/25 22:53:43;;;;;;;175.70;84.03;;;;;;;-2.47;87.95;98136.80;3855283;90;21024;-81
2021/11/25 22:59:48;;;;;;;199.97;91.07;;;;;;;-2.37;87.48;98137.88;3864385;89;21719;-80
2021/11/25 23:05:50;;;;;;;209.60;93.92;;;;;;;-2.27;87.74;98127.41;3963081;89;21074;-81
2021/11/25 23:11:52;;;;;;;208.93;94.43;;;;;;;-2.15;88.17;98127.04;3967171;87;21540;-81
2021/11/25 23:17:56;;;;;;;214.60;96.10;;;;;;;-1.96;88.49;98132.11;3977498;87;21025;-81
2021/11/25 23:24:07;;;;;;;213.03;93.43;;;;;;;-1.82;88.60;98131.41;3980257;89;21021;-81
2021/11/25 23:30:14;;;;;;;222.80;102.33;;;;;;;-1.67;88.64;98125.55;3980965;87;21376;-81
2021/11/25 23:36:19;;;;;;;240.70;105.77;;;;;;;-1.59;88.57;98108.66;3953472;88;21040;-82
2021/11/25 23:42:20;;;;;;;218.70;99.17;;;;;;;-1.48;88.79;98109.12;3960639;89;21077;-81
2021/11/25 23:48:25;;;;;;;244.37;107.73;;;;;;;-1.45;88.74;98087.01;3978829;89;21081;-81
2021/11/25 23:54:26;;;;;;;248.80;115.77;;;;;;;-1.41;89.00;98086.08;3969565;87;21112;-81
